Harrisburg, Arkansas
Current Conditions -  °F | °C
As of 11:53 PM on Monday 26 Jan 2015 (Local Time) from KJBR Reporting Station
Clear Clear  
Wind Chill: 40°   Ceiling: Unl
Heat Index: 44°   Visibility: 10mi
Dew Point: 34°   Wind: 8mph
Humidity: 68%   Direction: 270°W
Pressure: 29.95"   Gusts: NA
Location:  35.56°N, 90.72°W
Report Text: KJBR 270553Z AUTO 27007KT 10SM CLR 07/01 A2995 RMK AO2 SLP143 T00670011 10078 20039 401000017 52006
Loading
Personal Weather Stations






























Interactive Weather Map New forecast layout! Learn more

10-Day Weather Forecast

Advertisements
Track Severe Weather on mobile